Latest Weather Observations for Casterton

IDV60801

Issued at 12:32 pm EST Tuesday 26 July 2016 (issued every 30 minutes, with the page automatically refreshed every 10 minutes)

About weather observations | Map of weather stations | Latest weather observations for VIC | Other Formats
Station Details ID: 090182 Name: CASTERTON Lat: -37.58 Lon: 141.33 Height: 130.6 m
Data from the previous 72 hours. | See also: Recent months at Casterton
Date/Time
EST
Temp
°C
App
Temp
°C
Dew
Point
°C
Rel
Hum
%
Delta-T
°C
Wind Press
QNH
hPa
Press
MSL
hPa
Rain since
9am
mm
Dir  Spd
km/h
Gust
km/h
Spd
kts
Gust
kts
26/12:30pm 8.1 2.8 6.7 91 0.7 N 24 37 13 20 1009.6 - 0.0
26/12:00pm 8.1 3.6 6.9 92 0.6 N 20 33 11 18 1010.2 1010.5 0.0
26/11:30am 7.6 2.9 6.2 91 0.6 N 20 30 11 16 1010.4 - 0.0
26/11:00am 7.5 2.0 6.1 91 0.6 N 24 33 13 18 1010.8 - 0.0
26/10:30am 7.1 2.5 6.4 95 0.3 N 20 30 11 16 1011.1 - 0.0
26/10:00am 6.4 1.8 5.8 96 0.3 N 19 26 10 14 1011.2 - 0.0
26/09:30am 6.0 2.1 5.4 96 0.3 NNW 15 20 8 11 1011.3 - 0.0
26/09:00am 5.5 1.9 5.2 98 0.1 NNW 13 17 7 9 1011.3 1011.6 13.2
26/08:30am 5.0 0.6 4.7 98 0.1 NNW 17 26 9 14 1011.2 - 13.2
26/08:00am 3.6 0.1 3.5 99 0.0 N 11 15 6 8 1011.1 - 13.2
26/07:30am 3.1 -0.9 3.0 99 0.0 N 13 19 7 10 1011.2 - 13.2
26/07:00am 3.2 -0.4 3.1 99 0.0 NNW 11 17 6 9 1011.0 - 13.2
26/06:30am 3.3 0.1 3.2 99 0.0 NNW 9 13 5 7 1011.0 - 13.2
26/06:00am 3.3 0.1 3.2 99 0.0 NW 9 11 5 6 1010.8 1011.1 13.2
26/05:30am 3.2 -0.4 3.1 99 0.0 NW 11 13 6 7 1010.6 - 13.2
26/05:00am 4.3 0.9 4.2 99 0.0 WNW 11 15 6 8 1010.6 - 13.0
26/04:30am 4.3 0.2 4.2 99 0.0 WNW 15 20 8 11 1010.4 - 13.0
26/04:00am 3.8 0.3 3.7 99 0.0 WNW 11 17 6 9 1010.3 - 13.0
26/03:30am 4.6 0.2 4.5 99 0.0 WNW 17 24 9 13 1010.5 - 13.0
26/03:00am 4.8 0.8 4.7 99 0.0 WNW 15 20 8 11 1010.8 1011.1 13.0
26/02:30am 4.9 -0.1 4.8 99 0.0 NW 20 28 11 15 1010.7 - 13.0
26/02:00am 4.6 0.2 4.5 99 0.0 NW 17 20 9 11 1010.6 - 13.0
26/01:30am 4.9 0.5 4.8 99 0.0 WNW 17 26 9 14 1010.5 - 13.0
26/01:00am 4.8 0.8 4.7 99 0.0 NW 15 22 8 12 1010.4 - 12.8
26/12:30am 5.0 0.1 4.9 99 0.0 NW 20 26 11 14 1010.2 - 12.6
26/12:00am 5.4 -0.6 5.1 98 0.1 WNW 26 37 14 20 1010.2 1010.5 12.6
 
Date/Time
EST
Temp
°C
App
Temp
°C
Dew
Point
°C
Rel
Hum
%
Delta-T
°C
Wind Press
QNH
hPa
Press
MSL
hPa
Rain since
9am
mm
Dir  Spd
km/h
Gust
km/h
Spd
kts
Gust
kts
25/11:30pm 5.3 0.9 5.0 98 0.1 WNW 17 24 9 13 1010.0 - 12.0
25/11:00pm 5.5 -0.3 4.5 93 0.4 WNW 24 39 13 21 1009.6 - 12.0
25/10:30pm 5.2 0.7 4.2 93 0.4 WNW 17 24 9 13 1009.6 - 12.0
25/10:00pm 5.1 1.1 4.8 98 0.1 NW 15 20 8 11 1009.3 - 12.0
25/09:30pm 5.8 0.9 5.2 96 0.3 WNW 20 32 11 17 1009.0 - 11.4
25/09:00pm 5.4 0.7 5.1 98 0.1 NW 19 24 10 13 1008.5 1008.8 11.2
25/08:30pm 6.2 1.5 5.2 93 0.4 WNW 19 28 10 15 1008.3 - 11.2
25/08:00pm 6.2 1.4 5.6 96 0.3 WNW 20 28 11 15 1008.1 - 11.0
25/07:50pm 6.1 -0.3 5.4 95 0.3 WNW 28 50 15 27 1007.8 - 11.0
25/07:30pm 6.4 2.2 5.7 95 0.3 WNW 17 26 9 14 1007.4 - 10.6
25/07:00pm 6.1 1.5 5.4 95 0.3 WNW 19 28 10 15 1007.0 - 10.6
25/06:30pm 6.6 0.3 5.6 93 0.4 WNW 28 43 15 23 1006.6 - 10.6
25/06:00pm 6.8 -0.4 5.7 93 0.5 W 33 65 18 35 1005.8 1006.0 10.6
25/05:43pm 7.2 -0.9 6.8 97 0.2 W 39 61 21 33 1005.7 - 10.4
25/05:35pm 7.3 1.3 7.0 98 0.1 SW 28 59 15 32 1005.2 - 10.0
25/05:30pm 8.7 3.9 7.3 91 0.7 WNW 22 37 12 20 1004.9 - 9.2
25/05:00pm 8.6 3.4 7.4 92 0.6 WNW 24 39 13 21 1004.5 - 9.2
25/04:32pm 8.5 2.6 7.7 95 0.4 W 28 57 15 31 1004.1 - 9.2
25/04:30pm 8.4 3.8 8.3 99 0.0 W 22 50 12 27 1004.2 - 9.2
25/04:00pm 8.8 2.2 8.5 98 0.1 WNW 33 56 18 30 1003.4 - 8.2
25/03:55pm 8.7 2.2 8.3 97 0.2 WNW 32 52 17 28 1003.5 - 8.2
25/03:30pm 8.3 3.3 8.2 99 0.0 WNW 24 32 13 17 1003.3 - 7.4
25/03:00pm 7.9 0.7 7.8 99 0.0 W 35 54 19 29 1003.5 1003.8 7.4
25/02:53pm 7.9 -0.8 7.8 99 0.0 W 43 91 23 49 1003.5 - 7.2
25/02:50pm 8.1 -1.5 8.0 99 0.0 WNW 48 93 26 50 1003.4 - 7.0
25/02:43pm 9.7 -2.3 9.6 99 0.1 NW 63 93 34 50 1002.6 - 6.0
25/02:41pm 9.9 -2.1 9.8 99 0.1 NW 63 76 34 41 1001.8 - 5.0
25/02:30pm 10.1 3.1 9.9 99 0.1 NNW 37 61 20 33 1001.6 - 3.8
25/02:00pm 10.4 3.5 10.2 99 0.1 NNW 37 67 20 36 1001.6 - 1.2
25/01:59pm 10.3 3.7 10.1 99 0.1 NNW 35 61 19 33 1001.7 - 1.2
25/01:30pm 11.6 5.4 9.9 89 0.9 NNW 33 48 18 26 1002.0 - 0.2
25/01:00pm 10.9 4.2 9.5 91 0.7 NNW 35 54 19 29 1003.5 - 0.2
25/12:49pm 10.8 4.7 9.7 93 0.6 NNW 32 50 17 27 1004.0 - 0.2
25/12:30pm 10.2 4.6 10.0 99 0.1 NNW 30 46 16 25 1004.8 - 0.2
25/12:00pm 10.5 5.0 9.3 92 0.6 N 28 41 15 22 1005.6 1005.8 0.0
25/11:30am 11.1 5.7 9.4 89 0.9 N 28 39 15 21 1006.5 - 0.0
25/11:00am 10.8 6.1 9.1 89 0.9 NNW 24 32 13 17 1007.2 - 0.0
25/10:30am 9.8 4.9 8.4 91 0.7 N 24 37 13 20 1007.5 - 0.0
25/10:00am 9.3 3.5 8.1 92 0.6 NNW 28 39 15 21 1007.9 - 0.0
25/09:30am 9.0 5.2 7.6 91 0.7 NW 17 24 9 13 1008.3 - 0.0
25/09:00am 8.0 3.5 6.8 92 0.6 NW 20 28 11 15 1008.6 1008.9 2.2
25/08:30am 7.3 3.3 6.7 96 0.3 NW 17 20 9 11 1008.9 - 2.2
25/08:00am 5.8 2.0 5.7 99 0.0 NW 15 19 8 10 1008.9 - 2.2
25/07:30am 4.9 1.3 4.8 99 0.0 NW 13 15 7 8 1008.8 - 2.2
25/07:00am 5.9 2.5 5.8 99 0.0 WNW 13 19 7 10 1009.0 - 2.2
25/06:30am 6.2 2.8 6.1 99 0.0 WNW 13 17 7 9 1008.7 - 2.2
25/06:00am 6.9 3.7 6.8 99 0.0 WNW 13 19 7 10 1008.5 1008.8 2.2
25/05:30am 6.8 3.2 6.7 99 0.0 WNW 15 22 8 12 1008.2 - 2.2
25/05:00am 7.0 3.4 6.9 99 0.0 W 15 20 8 11 1008.0 - 2.2
25/04:30am 7.0 3.1 6.9 99 0.0 WNW 17 22 9 12 1007.6 - 2.2
25/04:00am 6.7 2.3 6.6 99 0.0 WNW 19 24 10 13 1007.3 - 2.0
25/03:30am 6.2 2.1 6.1 99 0.0 WNW 17 22 9 12 1006.9 - 2.0
25/03:00am 6.4 2.7 6.3 99 0.0 WNW 15 22 8 12 1006.8 1007.1 2.0
25/02:30am 6.3 2.2 6.2 99 0.0 WNW 17 22 9 12 1006.4 - 2.0
25/02:00am 6.1 1.6 6.0 99 0.0 WNW 19 24 10 13 1006.1 - 1.8
25/01:30am 6.2 1.7 6.1 99 0.0 NW 19 26 10 14 1005.6 - 1.8
25/01:00am 6.0 1.5 5.9 99 0.0 NW 19 24 10 13 1005.1 - 1.8
25/12:30am 5.7 2.2 5.6 99 0.0 NNW 13 17 7 9 1005.0 - 1.8
25/12:00am 6.0 1.8 5.9 99 0.0 NW 17 20 9 11 1005.1 1005.3 1.8
 
Date/Time
EST
Temp
°C
App
Temp
°C
Dew
Point
°C
Rel
Hum
%
Delta-T
°C
Wind Press
QNH
hPa
Press
MSL
hPa
Rain since
9am
mm
Dir  Spd
km/h
Gust
km/h
Spd
kts
Gust
kts
24/11:30pm 6.3 1.8 6.2 99 0.0 NW 19 24 10 13 1004.9 - 1.8
24/11:00pm 5.7 1.1 5.6 99 0.0 NW 19 24 10 13 1004.7 - 1.8
24/10:30pm 5.6 1.4 5.5 99 0.0 NW 17 22 9 12 1004.2 - 1.8
24/10:00pm 6.1 1.4 6.0 99 0.0 NW 20 32 11 17 1004.2 - 1.8
24/09:30pm 6.1 1.4 6.0 99 0.0 NW 20 32 11 17 1004.2 - 1.8
24/09:00pm 6.1 1.3 5.8 98 0.1 NW 20 30 11 16 1003.8 1004.1 1.4
24/08:30pm 6.1 1.5 5.8 98 0.1 NNW 19 26 10 14 1003.3 - 1.4
24/08:00pm 6.3 2.2 6.2 99 0.0 NNW 17 24 9 13 1002.9 - 1.4
24/07:30pm 6.7 2.1 6.4 98 0.1 WNW 20 26 11 14 1003.1 - 1.4
24/07:00pm 6.7 1.7 6.4 98 0.1 NNW 22 28 12 15 1002.3 - 1.4
24/06:30pm 6.6 1.6 6.3 98 0.1 NNW 22 32 12 17 1001.9 - 1.4
24/06:00pm 6.6 1.6 6.3 98 0.1 N 22 30 12 16 1001.5 1001.8 1.4
24/05:30pm 7.1 2.2 6.7 97 0.2 NNW 22 32 12 17 1001.2 - 1.4
24/05:00pm 7.7 1.6 6.8 94 0.4 NNW 28 39 15 21 1001.0 - 1.4
24/04:30pm 8.0 2.4 7.1 94 0.4 NNW 26 41 14 22 1001.3 - 1.4
24/04:00pm 8.1 2.2 7.7 97 0.2 NNW 28 39 15 21 1001.3 - 1.4
24/03:30pm 7.9 2.0 7.5 97 0.2 NNW 28 43 15 23 1001.3 - 1.4
24/03:00pm 8.3 1.6 7.5 95 0.4 NNW 32 52 17 28 1001.4 1001.7 1.2
24/02:54pm 8.4 2.1 7.5 94 0.4 NNW 30 52 16 28 1001.2 - 1.2
24/02:30pm 8.5 1.7 7.7 95 0.4 NNW 33 50 18 27 1001.2 - 1.0
24/02:17pm 9.0 3.3 8.2 95 0.4 N 28 48 15 26 1001.1 - 1.0
24/02:00pm 8.9 3.2 8.3 96 0.3 N 28 39 15 21 1001.3 - 0.8
24/01:30pm 9.0 3.9 7.5 90 0.7 N 24 37 13 20 1001.8 - 0.8
24/01:13pm 9.0 2.7 7.6 91 0.7 N 30 50 16 27 1002.3 - 0.8
24/01:00pm 9.1 3.3 8.0 93 0.5 N 28 44 15 24 1002.6 - 0.8
24/12:30pm 7.4 1.8 7.1 98 0.1 N 26 39 14 21 1003.4 - 0.8
24/12:00pm 7.0 1.7 6.7 98 0.1 N 24 41 13 22 1004.2 1004.5 0.4
24/11:30am 7.8 1.7 6.4 91 0.6 N 28 43 15 23 1005.3 - 0.0
24/11:00am 7.5 2.4 6.0 90 0.7 N 22 35 12 19 1005.8 - 0.0
24/10:30am 7.7 2.2 5.8 88 0.9 N 24 35 13 19 1006.2 - 0.0
24/10:00am 7.0 2.4 5.8 92 0.5 N 19 32 10 17 1006.4 - 0.0
24/09:30am 6.5 1.7 5.6 94 0.4 N 20 28 11 15 1006.9 - 0.0
24/09:00am 6.2 1.4 5.6 96 0.3 N 20 30 11 16 1007.0 1007.3 0.8
24/08:30am 6.1 1.5 5.5 96 0.3 N 19 30 10 16 1007.4 - 0.8
24/08:00am 5.5 1.2 5.2 98 0.1 N 17 28 9 15 1007.4 - 0.8
24/07:30am 5.1 1.1 4.8 98 0.1 N 15 20 8 11 1007.7 - 0.6
24/07:00am 4.8 0.4 4.5 98 0.1 N 17 24 9 13 1007.8 - 0.6
24/06:30am 4.8 0.8 4.7 99 0.0 N 15 22 8 12 1007.8 - 0.6
24/06:00am 4.6 0.9 4.5 99 0.0 N 13 20 7 11 1008.0 1008.3 0.6
24/05:30am 4.6 0.5 4.5 99 0.0 N 15 20 8 11 1008.3 - 0.6
24/05:00am 4.6 0.2 4.5 99 0.0 N 17 20 9 11 1008.7 - 0.6
24/04:30am 4.5 0.4 4.4 99 0.0 N 15 20 8 11 1009.0 - 0.6
24/04:00am 4.8 0.8 4.7 99 0.0 N 15 20 8 11 1009.2 - 0.6
24/03:30am 4.6 0.5 4.5 99 0.0 N 15 19 8 10 1009.9 - 0.6
24/03:00am 5.2 0.8 4.9 98 0.1 N 17 24 9 13 1010.5 1010.8 0.6
24/02:30am 5.0 1.0 4.7 98 0.1 N 15 20 8 11 1011.1 - 0.6
24/02:00am 5.3 1.3 5.0 98 0.1 NNW 15 19 8 10 1011.2 - 0.6
24/01:30am 4.4 0.3 4.3 99 0.0 N 15 19 8 10 1011.4 - 0.6
24/01:00am 4.6 0.2 4.5 99 0.0 N 17 24 9 13 1011.5 - 0.6
24/12:30am 4.0 0.2 3.9 99 0.0 N 13 15 7 8 1011.7 - 0.6
24/12:00am 4.5 1.6 4.4 99 0.0 N 9 15 5 8 1011.8 1012.1 0.6
 
Date/Time
EST
Temp
°C
App
Temp
°C
Dew
Point
°C
Rel
Hum
%
Delta-T
°C
Wind Press
QNH
hPa
Press
MSL
hPa
Rain since
9am
mm
Dir  Spd
km/h
Gust
km/h
Spd
kts
Gust
kts
23/11:30pm 5.4 1.1 5.3 99 0.0 NNW 17 20 9 11 1012.2 - 0.6
23/11:00pm 4.7 1.4 4.6 99 0.0 NNW 11 15 6 8 1012.5 - 0.6
23/10:30pm 4.3 0.9 4.2 99 0.0 NNW 11 15 6 8 1012.5 - 0.6
23/10:00pm 4.5 1.6 4.4 99 0.0 NNW 9 13 5 7 1012.5 - 0.6
23/09:30pm 5.1 2.6 5.0 99 0.0 NNW 7 9 4 5 1012.7 - 0.6
23/09:00pm 5.8 2.7 5.7 99 0.0 NNW 11 17 6 9 1012.8 1013.1 0.6
23/08:30pm 6.2 3.6 6.1 99 0.0 NW 9 13 5 7 1012.8 - 0.6
23/08:00pm 6.2 3.2 6.1 99 0.0 NNW 11 17 6 9 1013.0 - 0.4
23/07:30pm 5.6 3.3 5.5 99 0.0 NW 7 9 4 5 1012.8 - 0.4
23/07:00pm 6.2 4.0 6.1 99 0.0 NW 7 9 4 5 1012.5 - 0.4
23/06:30pm 5.2 2.8 5.1 99 0.0 NW 7 9 4 5 1012.2 - 0.4
23/06:00pm 6.4 3.8 6.0 97 0.2 WNW 9 13 5 7 1011.9 1012.2 0.4
23/05:30pm 7.4 3.3 6.0 91 0.6 W 17 26 9 14 1011.7 - 0.4
23/05:00pm 8.7 5.0 6.3 85 1.1 W 15 22 8 12 1011.2 - 0.4
23/04:30pm 9.0 4.8 5.7 80 1.5 W 17 24 9 13 1011.0 - 0.4
23/04:00pm 8.1 3.8 5.2 82 1.3 W 17 24 9 13 1010.8 - 0.4
23/03:30pm 9.4 4.0 4.6 72 2.1 W 22 37 12 20 1010.6 - 0.0
23/03:00pm 8.7 3.7 4.5 75 1.9 W 20 32 11 17 1010.4 1010.7 0.0
23/02:53pm 8.3 1.8 4.7 78 1.6 WSW 28 46 15 25 1010.4 - 0.0
23/02:30pm 9.9 3.1 3.2 63 2.9 W 28 43 15 23 1010.0 - 0.0
23/02:00pm 9.4 4.7 6.1 80 1.5 W 20 32 11 17 1009.9 - 0.0
23/01:36pm 8.8 2.2 4.0 72 2.1 W 28 46 15 25 1010.1 - 0.0
23/01:30pm 9.8 3.8 5.2 73 2.1 W 26 41 14 22 1009.9 - 0.0
23/01:00pm 7.8 1.1 3.5 74 1.8 W 28 52 15 28 1010.1 - 0.0
23/12:35pm 10.3 3.0 4.5 67 2.6 W 32 52 17 28 1009.5 - 0.0

Other Formats:

Comma delimited format used in spreadsheet applications
http://www.bom.gov.au/fwo/IDV60801/IDV60801.95825.axf

JavaScript Object Notation format (JSON) in row-major order
http://www.bom.gov.au/fwo/IDV60801/IDV60801.95825.json